Time;durP1;ratioP1;P1;durP2;ratioP2;P2;SDS_P1;SDS_P2;PMS_P1;PMS_P2;Temp;Humidity;BMP_temperature;BMP_pressure;BME280_temperature;BME280_humidity;BME280_pressure;Samples;Min_cycle;Max_cycle;Signal;HPM_P1;HPM_P2
2023/05/30 00:00:01;;;;;;;;;;;;;;;20.67;75.10;99443.47;5094027;28;19908;-41
2023/05/30 00:02:26;;;;;;;;;;;;;;;21.00;72.75;99450.06;5094168;28;20280;-41
2023/05/30 00:04:51;;;;;;;;;;;;;;;21.09;72.16;99439.47;5093572;28;19942;-41
2023/05/30 00:07:18;;;;;;;;;;;;;;;20.90;72.23;99447.41;5093423;28;20336;-41
2023/05/30 00:09:44;;;;;;;;;;;;;;;21.11;71.26;99437.28;5093505;28;19921;-42
2023/05/30 00:12:11;;;;;;;;;;;;;;;21.24;69.95;99438.56;5093283;28;19916;-42
2023/05/30 00:14:37;;;;;;;;;;;;;;;21.27;70.34;99443.41;5093378;28;20356;-42
2023/05/30 00:17:02;;;;;;;;;;;;;;;21.40;69.84;99447.34;5092627;28;19916;-42
2023/05/30 00:19:28;;;;;;;;;;;;;;;21.44;69.17;99445.75;5093329;28;19935;-42
2023/05/30 00:21:54;;;;;;;;;;;;;;;21.34;69.47;99443.88;5094001;28;19912;-42
2023/05/30 00:24:20;;;;;;;;;;;;;;;21.26;68.85;99442.59;5093060;28;19912;-42
2023/05/30 00:26:46;;;;;;;;;;;;;;;21.29;68.83;99433.91;5093230;28;19912;-42
2023/05/30 00:29:11;;;;;;;;;;;;;;;21.40;68.55;99440.06;5093581;28;19920;-43
2023/05/30 00:31:36;;;;;;;;;;;;;;;21.32;69.80;99432.53;5092831;28;20018;-41
2023/05/30 00:34:02;;;;;;;;;;;;;;;21.39;68.91;99437.63;5092699;28;19919;-41
2023/05/30 00:36:27;;;;;;;;;;;;;;;21.47;69.41;99426.22;5092576;28;20003;-41
2023/05/30 00:38:52;;;;;;;;;;;;;;;21.49;69.67;99429.47;5092730;28;19912;-42
2023/05/30 00:41:17;;;;;;;;;;;;;;;21.51;70.07;99435.41;5093153;28;19934;-42
2023/05/30 00:43:43;;;;;;;;;;;;;;;21.11;71.33;99434.56;5093219;28;19912;-40
2023/05/30 00:46:11;;;;;;;;;;;;;;;21.22;70.37;99438.03;5092464;28;19912;-41
2023/05/30 00:48:38;;;;;;;;;;;;;;;21.04;70.54;99439.50;5092853;28;19973;-42
2023/05/30 00:51:07;;;;;;;;;;;;;;;20.95;72.30;99444.69;5092600;28;19911;-41
2023/05/30 00:53:33;;;;;;;;;;;;;;;21.14;70.39;99447.56;5092448;28;20007;-42
2023/05/30 00:55:58;;;;;;;;;;;;;;;21.13;71.54;99443.22;5092661;28;19939;-42
2023/05/30 00:58:24;;;;;;;;;;;;;;;21.13;71.19;99445.13;5092155;28;19923;-42
2023/05/30 01:00:49;;;;;;;;;;;;;;;21.16;70.35;99444.56;5091371;28;19916;-42
2023/05/30 01:03:16;;;;;;;;;;;;;;;20.92;71.01;99455.25;5092937;28;20315;-41
2023/05/30 01:05:43;;;;;;;;;;;;;;;21.05;70.07;99430.28;5091828;28;20364;-41
2023/05/30 01:08:10;;;;;;;;;;;;;;;21.02;70.77;99447.91;5092450;28;19985;-41
2023/05/30 01:10:36;;;;;;;;;;;;;;;21.02;70.67;99447.91;5092377;28;19947;-41
2023/05/30 01:13:11;;;;;;;;;;;;;;;21.13;70.16;99454.03;5092192;28;19966;-42
2023/05/30 01:15:43;;;;;;;;;;;;;;;21.18;69.24;99445.91;5092109;28;19983;-41
2023/05/30 01:18:12;;;;;;;;;;;;;;;21.31;69.22;99447.16;5091618;28;19935;-41
2023/05/30 01:20:45;;;;;;;;;;;;;;;21.24;68.98;99446.66;5092270;28;19912;-41
2023/05/30 01:23:30;;;;;;;;;;;;;;;20.67;71.68;99449.69;5092080;28;20375;-42
2023/05/30 01:25:58;;;;;;;;;;;;;;;20.79;71.04;99446.69;5091820;28;19919;-42
2023/05/30 01:28:24;;;;;;;;;;;;;;;20.66;71.73;99452.69;5092413;28;19963;-41
2023/05/30 01:30:51;;;;;;;;;;;;;;;20.84;71.49;99449.34;5091896;28;20338;-41
2023/05/30 01:33:19;;;;;;;;;;;;;;;20.68;70.85;99445.91;5091994;28;19913;-41
2023/05/30 01:35:45;;;;;;;;;;;;;;;20.55;72.68;99441.06;5091106;28;19927;-41
2023/05/30 01:38:11;;;;;;;;;;;;;;;20.38;72.96;99451.41;5091836;28;19916;-41
2023/05/30 01:40:37;;;;;;;;;;;;;;;20.65;71.87;99442.94;5091860;28;19941;-42
2023/05/30 01:43:15;;;;;;;;;;;;;;;20.49;73.04;99453.00;5091841;28;19912;-41
2023/05/30 01:45:54;;;;;;;;;;;;;;;20.74;71.22;99443.19;5090942;28;20014;-42
2023/05/30 01:48:39;;;;;;;;;;;;;;;20.74;71.65;99444.00;5091260;28;19912;-41
2023/05/30 01:51:07;;;;;;;;;;;;;;;20.23;75.08;99436.84;5091663;28;19919;-42
2023/05/30 01:53:36;;;;;;;;;;;;;;;19.98;75.76;99434.22;5091431;28;19951;-41
2023/05/30 01:56:02;;;;;;;;;;;;;;;19.81;76.63;99434.50;5090866;28;20308;-42
2023/05/30 01:58:28;;;;;;;;;;;;;;;20.32;73.97;99439.81;5091521;28;19952;-42
2023/05/30 02:00:54;;;;;;;;;;;;;;;20.31;73.68;99436.31;5091381;28;19947;-42
2023/05/30 02:03:22;;;;;;;;;;;;;;;20.51;72.74;99445.41;5091938;28;19912;-41
2023/05/30 02:05:47;;;;;;;;;;;;;;;20.73;72.03;99439.66;5091256;28;19999;-42
2023/05/30 02:08:12;;;;;;;;;;;;;;;20.85;71.36;99440.16;5091187;28;20382;-42
2023/05/30 02:10:38;;;;;;;;;;;;;;;20.55;71.48;99438.38;5090668;28;19919;-41
2023/05/30 02:13:03;;;;;;;;;;;;;;;20.46;72.80;99438.13;5091324;28;20426;-42
2023/05/30 02:15:28;;;;;;;;;;;;;;;20.67;71.74;99438.88;5090914;28;19912;-41
2023/05/30 02:17:53;;;;;;;;;;;;;;;20.61;71.31;99442.69;5090598;28;20387;-41
2023/05/30 02:20:19;;;;;;;;;;;;;;;20.30;72.02;99433.88;5090146;28;19912;-41
2023/05/30 02:22:44;;;;;;;;;;;;;;;20.09;72.94;99428.53;5089726;28;19920;-42
2023/05/30 02:25:09;;;;;;;;;;;;;;;20.05;72.81;99430.16;5090565;28;19919;-41
2023/05/30 02:27:35;;;;;;;;;;;;;;;20.00;72.32;99423.94;5090962;28;19916;-41
2023/05/30 02:30:00;;;;;;;;;;;;;;;20.02;71.85;99425.28;5090768;28;20284;-42
2023/05/30 02:32:25;;;;;;;;;;;;;;;20.01;71.22;99433.66;5097508;28;19916;-41
2023/05/30 02:34:50;;;;;;;;;;;;;;;20.28;71.20;99431.44;5092829;28;19943;-41
2023/05/30 02:37:16;;;;;;;;;;;;;;;20.14;70.88;99440.38;5082352;28;19920;-42
2023/05/30 02:39:41;;;;;;;;;;;;;;;20.06;70.37;99445.25;5085500;28;20007;-42
2023/05/30 02:42:06;;;;;;;;;;;;;;;20.13;69.39;99439.59;5091147;28;19912;-43
2023/05/30 02:44:32;;;;;;;;;;;;;;;19.51;71.35;99453.13;5090436;28;19919;-43
2023/05/30 02:47:00;;;;;;;;;;;;;;;19.89;70.04;99437.47;5090153;28;19916;-42
2023/05/30 02:49:27;;;;;;;;;;;;;;;20.00;69.62;99443.66;5090908;28;20011;-40
2023/05/30 02:51:52;;;;;;;;;;;;;;;20.17;68.91;99440.66;5089702;28;19980;-41
2023/05/30 02:54:17;;;;;;;;;;;;;;;19.88;69.82;99449.34;5090515;28;19916;-41
2023/05/30 02:56:43;;;;;;;;;;;;;;;20.14;69.44;99448.50;5087114;28;19974;-41
2023/05/30 02:59:08;;;;;;;;;;;;;;;20.19;68.94;99446.59;5070516;28;19908;-41
2023/05/30 03:01:33;;;;;;;;;;;;;;;20.39;68.45;99445.72;5090750;28;19928;-41
2023/05/30 03:03:59;;;;;;;;;;;;;;;20.08;70.47;99450.41;5089622;28;20570;-41
2023/05/30 03:06:24;;;;;;;;;;;;;;;20.34;68.69;99453.03;5090329;28;19916;-41
2023/05/30 03:08:57;;;;;;;;;;;;;;;20.29;69.01;99460.06;5090031;28;19958;-41
2023/05/30 03:11:22;;;;;;;;;;;;;;;20.40;68.78;99460.03;5090527;28;20398;-41
2023/05/30 03:13:47;;;;;;;;;;;;;;;20.32;68.68;99466.81;5088898;28;19955;-41
2023/05/30 03:16:13;;;;;;;;;;;;;;;20.23;73.37;99461.16;5089938;28;19912;-41
2023/05/30 03:18:39;;;;;;;;;;;;;;;20.08;70.72;99462.00;5088373;28;19920;-41
2023/05/30 03:21:05;;;;;;;;;;;;;;;20.13;70.16;99461.19;5090487;28;19917;-41
2023/05/30 03:23:30;;;;;;;;;;;;;;;19.89;70.44;99463.66;5092091;28;19919;-41
2023/05/30 03:25:56;;;;;;;;;;;;;;;19.68;71.70;99465.53;5093965;28;19918;-41
2023/05/30 03:28:21;;;;;;;;;;;;;;;19.46;72.61;99463.91;5093177;28;19916;-41
2023/05/30 03:30:46;;;;;;;;;;;;;;;19.34;72.85;99468.75;5092972;28;20401;-41
2023/05/30 03:33:12;;;;;;;;;;;;;;;19.18;73.86;99470.63;5093258;28;19968;-41
2023/05/30 03:35:37;;;;;;;;;;;;;;;18.98;74.44;99459.78;5093370;28;20566;-41
2023/05/30 03:38:03;;;;;;;;;;;;;;;18.98;74.47;99476.75;5092655;28;19916;-41
2023/05/30 03:40:28;;;;;;;;;;;;;;;19.07;74.61;99472.47;5092983;28;19912;-41
2023/05/30 03:42:55;;;;;;;;;;;;;;;19.18;74.01;99478.72;5093698;28;19973;-41
2023/05/30 03:45:20;;;;;;;;;;;;;;;19.71;71.80;99478.50;5092783;28;20554;-41
2023/05/30 03:47:45;;;;;;;;;;;;;;;19.87;71.19;99482.81;5092873;28;19928;-41
2023/05/30 03:50:10;;;;;;;;;;;;;;;20.01;70.34;99479.56;5093065;28;20037;-41
2023/05/30 03:52:36;;;;;;;;;;;;;;;20.02;70.75;99473.91;5093243;28;19945;-41
2023/05/30 03:55:02;;;;;;;;;;;;;;;20.08;69.63;99482.81;5093518;28;19912;-41
2023/05/30 03:57:27;;;;;;;;;;;;;;;20.04;69.51;99489.84;5093237;28;19916;-41
2023/05/30 03:59:52;;;;;;;;;;;;;;;20.25;69.02;99493.31;5093741;28;19977;-41
2023/05/30 04:02:18;;;;;;;;;;;;;;;20.25;69.08;99499.50;5093866;28;19923;-41
2023/05/30 04:04:43;;;;;;;;;;;;;;;20.19;69.69;99500.63;5093608;28;20315;-41
2023/05/30 04:07:08;;;;;;;;;;;;;;;20.13;69.69;99500.91;5093354;28;19919;-41
2023/05/30 04:09:33;;;;;;;;;;;;;;;20.00;70.59;99504.97;5093539;28;19913;-41
2023/05/30 04:11:59;;;;;;;;;;;;;;;20.03;70.37;99507.09;5093297;28;20011;-41
2023/05/30 04:14:24;;;;;;;;;;;;;;;20.21;70.14;99508.47;5093971;28;19919;-41
2023/05/30 04:16:49;;;;;;;;;;;;;;;20.21;70.01;99509.25;5092940;28;20023;-41
2023/05/30 04:19:15;;;;;;;;;;;;;;;20.48;69.29;99510.81;5093453;28;20018;-41
2023/05/30 04:21:40;;;;;;;;;;;;;;;20.66;68.40;99512.97;5092901;28;20450;-41
2023/05/30 04:24:07;;;;;;;;;;;;;;;20.61;68.62;99514.88;5093158;28;19920;-41
2023/05/30 04:26:32;;;;;;;;;;;;;;;20.37;69.52;99511.94;5092570;28;19924;-41
2023/05/30 04:28:58;;;;;;;;;;;;;;;20.70;68.47;99522.13;5093042;28;19920;-42
2023/05/30 04:31:24;;;;;;;;;;;;;;;20.65;67.88;99497.81;5092855;28;20018;-41
2023/05/30 04:33:50;;;;;;;;;;;;;;;20.65;68.46;99519.44;5092663;28;19924;-41
2023/05/30 04:36:18;;;;;;;;;;;;;;;20.96;67.79;99515.81;5092042;28;19916;-42
2023/05/30 04:38:44;;;;;;;;;;;;;;;20.59;68.01;99519.72;5091982;28;19920;-41
2023/05/30 04:41:10;;;;;;;;;;;;;;;20.74;67.78;99533.22;5091957;28;19976;-42
2023/05/30 04:43:35;;;;;;;;;;;;;;;20.58;68.83;99523.50;5091963;28;19935;-43
2023/05/30 04:46:03;;;;;;;;;;;;;;;20.82;68.00;99524.53;5091953;28;19913;-43
2023/05/30 04:48:29;;;;;;;;;;;;;;;20.99;67.42;99536.91;5092208;28;19975;-43
2023/05/30 04:50:54;;;;;;;;;;;;;;;20.93;67.19;99525.31;5092031;28;19914;-42
2023/05/30 04:53:20;;;;;;;;;;;;;;;20.86;67.36;99527.47;5091813;28;19919;-42
2023/05/30 04:55:46;;;;;;;;;;;;;;;20.81;67.84;99531.03;5091812;28;20056;-42
2023/05/30 04:58:11;;;;;;;;;;;;;;;20.86;72.49;99531.00;5091813;28;20406;-43
2023/05/30 05:00:37;;;;;;;;;;;;;;;21.04;73.04;99536.88;5091431;28;19917;-43
2023/05/30 05:03:03;;;;;;;;;;;;;;;21.28;68.26;99534.31;5091977;28;19923;-42
2023/05/30 05:05:28;;;;;;;;;;;;;;;21.37;65.54;99540.75;5090199;28;20291;-42
2023/05/30 05:07:53;;;;;;;;;;;;;;;21.61;64.47;99546.34;5090232;28;19965;-42
2023/05/30 05:10:19;;;;;;;;;;;;;;;21.51;64.29;99548.28;5091919;28;19912;-42
2023/05/30 05:12:44;;;;;;;;;;;;;;;21.57;63.88;99550.69;5089776;28;19923;-42
2023/05/30 05:15:10;;;;;;;;;;;;;;;21.56;64.09;99556.38;5091843;28;19924;-42
2023/05/30 05:17:36;;;;;;;;;;;;;;;21.50;64.33;99557.50;5091050;28;20004;-42
2023/05/30 05:20:02;;;;;;;;;;;;;;;21.60;63.87;99552.03;5091526;28;19912;-42
2023/05/30 05:22:27;;;;;;;;;;;;;;;21.50;65.37;99554.81;5092020;28;19935;-42
2023/05/30 05:24:53;;;;;;;;;;;;;;;21.27;64.98;99551.66;5089553;28;19916;-42
2023/05/30 05:27:18;;;;;;;;;;;;;;;20.80;66.35;99556.44;5090590;28;19969;-41
2023/05/30 05:29:43;;;;;;;;;;;;;;;20.50;67.53;99555.44;5090641;28;19951;-42
2023/05/30 05:32:09;;;;;;;;;;;;;;;20.12;69.46;99562.22;5090524;28;19934;-42
2023/05/30 05:34:34;;;;;;;;;;;;;;;20.08;69.50;99563.84;5090542;28;20001;-42
2023/05/30 05:36:59;;;;;;;;;;;;;;;20.14;70.65;99565.44;5090567;28;19923;-42
2023/05/30 05:39:25;;;;;;;;;;;;;;;20.03;71.45;99558.41;5090960;28;19999;-43
2023/05/30 05:41:50;;;;;;;;;;;;;;;20.23;69.69;99568.44;5090958;28;20353;-42
2023/05/30 05:44:15;;;;;;;;;;;;;;;20.34;69.61;99570.03;5091079;28;19935;-42
2023/05/30 05:46:41;;;;;;;;;;;;;;;20.91;68.22;99565.34;5090392;28;20521;-42
2023/05/30 05:49:06;;;;;;;;;;;;;;;20.84;67.31;99567.53;5090923;28;19912;-42
2023/05/30 05:51:31;;;;;;;;;;;;;;;20.69;68.57;99569.19;5091219;28;19919;-42
2023/05/30 05:53:57;;;;;;;;;;;;;;;21.23;68.86;99574.94;5092119;28;20003;-42
2023/05/30 05:56:22;;;;;;;;;;;;;;;21.46;67.41;99570.78;5090600;28;19918;-42
2023/05/30 05:58:47;;;;;;;;;;;;;;;21.38;67.31;99569.44;5090915;28;20509;-42
2023/05/30 06:01:13;;;;;;;;;;;;;;;21.84;66.80;99573.78;5091854;28;19912;-41
2023/05/30 06:03:38;;;;;;;;;;;;;;;22.10;65.37;99566.25;5091795;28;19912;-42
2023/05/30 06:06:03;;;;;;;;;;;;;;;21.70;65.65;99570.88;5090879;28;20493;-43
2023/05/30 06:08:28;;;;;;;;;;;;;;;22.03;64.61;99580.13;5090252;28;19912;-42
2023/05/30 06:10:54;;;;;;;;;;;;;;;21.69;65.28;99580.13;5089981;28;19971;-42
2023/05/30 06:13:19;;;;;;;;;;;;;;;21.32;65.72;99575.97;5088634;28;19912;-42
2023/05/30 06:15:44;;;;;;;;;;;;;;;21.31;66.13;99579.78;5088510;28;19958;-41
2023/05/30 06:18:10;;;;;;;;;;;;;;;21.42;66.13;99588.66;5087462;28;20001;-42
2023/05/30 06:20:35;;;;;;;;;;;;;;;21.63;65.57;99581.25;5088427;28;19938;-42
2023/05/30 06:23:00;;;;;;;;;;;;;;;21.69;65.00;99580.13;5089455;28;19912;-42
2023/05/30 06:25:26;;;;;;;;;;;;;;;22.03;64.73;99585.56;5089113;28;19935;-41
2023/05/30 06:27:51;;;;;;;;;;;;;;;22.17;63.63;99587.63;5089215;28;19916;-42
2023/05/30 06:30:17;;;;;;;;;;;;;;;22.38;63.85;99588.28;5089628;28;20385;-43
2023/05/30 06:32:42;;;;;;;;;;;;;;;22.27;62.93;99592.16;5089716;28;19916;-42
2023/05/30 06:35:08;;;;;;;;;;;;;;;22.53;62.73;99588.13;5089656;28;19912;-42
2023/05/30 06:37:33;;;;;;;;;;;;;;;22.63;63.20;99595.34;5089628;28;19916;-43
2023/05/30 06:39:58;;;;;;;;;;;;;;;22.29;62.16;99596.19;5089972;28;19940;-42
2023/05/30 06:42:23;;;;;;;;;;;;;;;22.58;62.02;99596.22;5090126;28;20339;-43
2023/05/30 06:47:32;;;;;;;;;;;;;;;23.27;59.65;99595.19;5089669;28;19919;-43
2023/05/30 06:49:58;;;;;;;;;;;;;;;23.27;60.50;99595.19;5090077;28;19912;-43
2023/05/30 06:52:23;;;;;;;;;;;;;;;23.23;60.25;99601.19;5090259;28;19912;-41
2023/05/30 06:54:48;;;;;;;;;;;;;;;23.41;59.17;99591.44;5089744;28;20261;-42
2023/05/30 06:57:13;;;;;;;;;;;;;;;23.27;60.19;99597.91;5088785;28;19949;-42
2023/05/30 06:59:39;;;;;;;;;;;;;;;23.29;58.85;99603.84;5089578;28;19912;-42
2023/05/30 07:02:04;;;;;;;;;;;;;;;23.04;59.65;99608.50;5089593;28;20358;-41
2023/05/30 07:04:29;;;;;;;;;;;;;;;23.26;60.20;99618.00;5089807;28;19912;-42
2023/05/30 07:06:55;;;;;;;;;;;;;;;23.28;59.53;99624.75;5089406;28;19916;-42
2023/05/30 07:09:20;;;;;;;;;;;;;;;23.33;58.11;99618.47;5089624;28;19912;-42
2023/05/30 07:11:45;;;;;;;;;;;;;;;22.10;62.40;99622.34;5089307;28;19923;-43
2023/05/30 07:14:11;;;;;;;;;;;;;;;21.95;63.05;99632.22;5089601;28;20387;-41
2023/05/30 07:16:36;;;;;;;;;;;;;;;22.55;61.35;99621.19;5089122;28;20002;-39
2023/05/30 07:19:02;;;;;;;;;;;;;;;23.11;60.84;99624.41;5088866;28;19966;-42
2023/05/30 07:21:28;;;;;;;;;;;;;;;23.26;59.22;99628.84;5089320;28;20322;-41
2023/05/30 07:23:54;;;;;;;;;;;;;;;23.51;59.43;99627.72;5089608;28;19920;-42
2023/05/30 07:26:19;;;;;;;;;;;;;;;23.75;57.45;99633.09;5088987;28;19985;-40
2023/05/30 07:28:45;;;;;;;;;;;;;;;23.37;57.42;99638.50;5089491;28;19923;-42
2023/05/30 07:31:10;;;;;;;;;;;;;;;23.35;58.99;99641.50;5089398;28;19916;-41
2023/05/30 07:33:35;;;;;;;;;;;;;;;23.71;58.14;99632.88;5089441;28;19934;-41
2023/05/30 07:36:01;;;;;;;;;;;;;;;23.60;57.34;99631.41;5089449;28;20372;-43
2023/05/30 07:38:26;;;;;;;;;;;;;;;24.07;58.01;99632.38;5088826;28;19923;-42
2023/05/30 07:40:51;;;;;;;;;;;;;;;24.43;57.38;99639.94;5089022;28;19919;-42
2023/05/30 07:43:17;;;;;;;;;;;;;;;24.73;56.16;99629.63;5089542;28;19912;-42
2023/05/30 07:45:42;;;;;;;;;;;;;;;24.73;54.44;99635.91;5088925;28;19961;-42
2023/05/30 07:48:08;;;;;;;;;;;;;;;24.55;54.94;99642.22;5088912;28;19912;-42
2023/05/30 07:50:33;;;;;;;;;;;;;;;24.78;55.66;99638.53;5088391;28;20026;-42
2023/05/30 07:52:59;;;;;;;;;;;;;;;24.69;54.25;99639.50;5088928;28;19912;-42
2023/05/30 07:55:26;;;;;;;;;;;;;;;24.95;54.91;99637.13;5089063;28;19912;-42
2023/05/30 07:57:51;;;;;;;;;;;;;;;25.15;54.65;99635.91;5088691;28;20080;-43
2023/05/30 08:00:16;;;;;;;;;;;;;;;25.32;54.30;99643.50;5089627;28;19957;-42
2023/05/30 08:02:42;;;;;;;;;;;;;;;25.47;53.48;99643.16;5089463;28;20012;-42
2023/05/30 08:05:07;;;;;;;;;;;;;;;25.47;54.16;99636.91;5088634;28;19993;-42
2023/05/30 08:07:32;;;;;;;;;;;;;;;25.59;53.84;99641.84;5089026;28;19912;-41
2023/05/30 08:09:58;;;;;;;;;;;;;;;25.71;53.29;99642.94;5091003;28;19912;-42
2023/05/30 08:12:28;;;;;;;;;;;;;;;25.77;53.19;99637.38;5092969;28;19918;-42
2023/05/30 08:14:54;;;;;;;;;;;;;;;25.90;53.50;99644.69;5092730;28;20009;-43
2023/05/30 08:17:23;;;;;;;;;;;;;;;26.03;52.79;99638.41;5092829;28;19916;-42
2023/05/30 08:19:50;;;;;;;;;;;;;;;26.08;51.93;99632.03;5092338;28;19919;-44
2023/05/30 08:22:15;;;;;;;;;;;;;;;26.16;52.28;99642.22;5092614;28;19913;-43
2023/05/30 08:24:41;;;;;;;;;;;;;;;26.21;52.36;99638.53;5092596;28;20070;-42
2023/05/30 08:27:06;;;;;;;;;;;;;;;26.17;52.52;99643.00;5092443;28;19963;-43
2023/05/30 08:29:33;;;;;;;;;;;;;;;26.23;52.93;99642.56;5092405;28;19927;-42
2023/05/30 08:31:58;;;;;;;;;;;;;;;26.16;53.03;99650.38;5092353;28;19917;-42
2023/05/30 08:34:24;;;;;;;;;;;;;;;26.14;53.24;99647.13;5092579;28;19912;-44
2023/05/30 08:36:51;;;;;;;;;;;;;;;25.94;54.03;99643.00;5092374;28;19939;-43
2023/05/30 08:39:16;;;;;;;;;;;;;;;25.91;54.22;99638.13;5092280;28;19916;-41
2023/05/30 08:41:42;;;;;;;;;;;;;;;25.69;54.26;99636.19;5092059;28;19984;-43
2023/05/30 08:44:07;;;;;;;;;;;;;;;25.66;54.51;99643.03;5092275;28;19912;-42
2023/05/30 08:46:33;;;;;;;;;;;;;;;25.61;54.22;99624.09;5091988;28;20410;-43
2023/05/30 08:48:58;;;;;;;;;;;;;;;25.79;54.56;99640.59;5091908;28;19919;-42
2023/05/30 08:51:24;;;;;;;;;;;;;;;25.80;54.34;99645.75;5091756;28;19912;-42
2023/05/30 08:53:53;;;;;;;;;;;;;;;25.82;54.52;99645.44;5091909;28;19954;-42
2023/05/30 08:56:23;;;;;;;;;;;;;;;25.84;55.15;99644.00;5092052;28;19908;-41
2023/05/30 08:58:50;;;;;;;;;;;;;;;25.88;55.74;99645.00;5092209;28;20007;-42
2023/05/30 09:01:16;;;;;;;;;;;;;;;25.91;55.88;99649.03;5091931;28;19912;-42
2023/05/30 09:03:42;;;;;;;;;;;;;;;25.87;55.79;99645.31;5091845;28;20364;-42
2023/05/30 09:06:08;;;;;;;;;;;;;;;25.85;56.19;99642.09;5091416;28;19956;-42
2023/05/30 09:08:34;;;;;;;;;;;;;;;25.80;54.98;99650.38;5091875;28;19954;-43
2023/05/30 09:11:02;;;;;;;;;;;;;;;25.80;55.00;99644.91;5091666;28;19912;-43
2023/05/30 09:13:27;;;;;;;;;;;;;;;25.80;55.11;99650.38;5091589;28;20319;-42
2023/05/30 09:15:53;;;;;;;;;;;;;;;25.86;55.17;99654.59;5091296;28;19912;-43
2023/05/30 09:18:18;;;;;;;;;;;;;;;25.81;55.47;99652.00;5091305;28;19916;-43
2023/05/30 09:20:44;;;;;;;;;;;;;;;25.79;55.44;99646.03;5090466;28;20017;-42
2023/05/30 09:23:12;;;;;;;;;;;;;;;25.77;55.04;99646.34;5091170;28;19912;-42
2023/05/30 09:25:44;;;;;;;;;;;;;;;25.67;56.06;99646.59;5091341;28;19912;-42
2023/05/30 09:28:10;;;;;;;;;;;;;;;25.60;56.37;99647.00;5091143;28;20123;-42
2023/05/30 09:30:51;;;;;;;;;;;;;;;25.58;57.17;99638.31;5091229;28;20328;-42
2023/05/30 09:33:16;;;;;;;;;;;;;;;25.55;57.10;99644.38;5090857;28;19923;-42
2023/05/30 09:35:43;;;;;;;;;;;;;;;25.57;56.90;99636.72;5090880;28;19916;-42
2023/05/30 09:38:08;;;;;;;;;;;;;;;25.64;56.26;99633.56;5091007;28;19923;-42
2023/05/30 09:40:34;;;;;;;;;;;;;;;25.65;56.35;99627.81;5090479;28;20387;-42
2023/05/30 09:42:59;;;;;;;;;;;;;;;25.60;56.75;99633.38;5091089;28;19923;-41
2023/05/30 09:45:25;;;;;;;;;;;;;;;25.58;56.64;99638.31;5090632;28;19996;-43
2023/05/30 09:47:51;;;;;;;;;;;;;;;25.50;56.48;99636.31;5090851;28;20368;-43
2023/05/30 09:50:17;;;;;;;;;;;;;;;25.52;55.87;99628.66;5090750;28;19916;-43
2023/05/30 09:52:44;;;;;;;;;;;;;;;25.50;55.21;99628.94;5090599;28;19939;-43
2023/05/30 09:55:11;;;;;;;;;;;;;;;25.53;55.67;99632.97;5090869;28;19943;-43
2023/05/30 09:57:37;;;;;;;;;;;;;;;25.55;55.55;99628.84;5090888;28;20006;-42
2023/05/30 10:00:09;;;;;;;;;;;;;;;25.33;55.73;99628.78;5090130;28;20429;-43
2023/05/30 10:02:34;;;;;;;;;;;;;;;25.40;56.05;99631.06;5090916;28;19935;-42
2023/05/30 10:04:59;;;;;;;;;;;;;;;25.46;56.42;99632.59;5090102;28;20233;-42
2023/05/30 10:07:25;;;;;;;;;;;;;;;25.52;55.93;99620.47;5090311;28;19912;-43
2023/05/30 10:09:51;;;;;;;;;;;;;;;25.53;55.77;99625.63;5090404;28;19942;-43
2023/05/30 10:12:17;;;;;;;;;;;;;;;25.20;56.65;99622.19;5090225;28;19912;-43
2023/05/30 10:14:43;;;;;;;;;;;;;;;25.32;56.68;99622.53;5090692;28;19992;-42
2023/05/30 10:17:13;;;;;;;;;;;;;;;25.47;56.34;99617.84;5089661;28;19939;-42
2023/05/30 10:19:50;;;;;;;;;;;;;;;25.38;56.88;99625.13;5089588;28;19919;-42
2023/05/30 10:22:16;;;;;;;;;;;;;;;25.44;55.99;99619.28;5090404;28;19989;-42
2023/05/30 10:24:43;;;;;;;;;;;;;;;25.46;56.44;99619.78;5089673;28;20388;-43
2023/05/30 10:27:11;;;;;;;;;;;;;;;25.59;55.83;99625.50;5089792;28;19912;-43
2023/05/30 10:29:56;;;;;;;;;;;;;;;25.62;55.70;99627.63;5090253;28;19973;-43
2023/05/30 10:32:25;;;;;;;;;;;;;;;25.26;55.83;99623.72;5089656;28;19916;-44
2023/05/30 10:34:54;;;;;;;;;;;;;;;25.63;55.73;99623.78;5090355;28;19916;-42
2023/05/30 10:37:20;;;;;;;;;;;;;;;25.83;54.81;99623.31;5089465;28;19923;-44
2023/05/30 10:40:00;;;;;;;;;;;;;;;26.06;54.19;99624.16;5089106;28;19912;-43
2023/05/30 10:42:30;;;;;;;;;;;;;;;26.25;54.77;99613.06;5090246;28;19939;-43
2023/05/30 10:45:05;;;;;;;;;;;;;;;26.38;54.15;99621.50;5089406;28;19912;-43
2023/05/30 10:47:30;;;;;;;;;;;;;;;26.48;53.30;99622.03;5089820;28;19970;-43
2023/05/30 10:49:57;;;;;;;;;;;;;;;26.49;52.60;99622.84;5089717;28;19916;-42
2023/05/30 10:52:30;;;;;;;;;;;;;;;26.64;51.81;99608.03;5089897;28;19936;-42
2023/05/30 10:54:55;;;;;;;;;;;;;;;26.72;51.81;99604.53;5089655;28;19918;-42
2023/05/30 10:57:26;;;;;;;;;;;;;;;26.63;51.23;99609.13;5089401;28;19917;-42
2023/05/30 11:00:21;;;;;;;;;;;;;;;26.84;51.65;99603.91;5089445;28;19916;-42
2023/05/30 11:02:51;;;;;;;;;;;;;;;27.02;51.34;99607.53;5084914;28;20438;-42
2023/05/30 11:05:18;;;;;;;;;;;;;;;27.02;50.08;99607.53;5086080;28;19973;-42
2023/05/30 11:07:44;;;;;;;;;;;;;;;27.19;50.33;99593.09;5087729;28;20278;-43
2023/05/30 11:10:11;;;;;;;;;;;;;;;27.32;50.18;99594.13;5086902;28;19920;-42
2023/05/30 11:12:41;;;;;;;;;;;;;;;27.37;50.19;99599.44;5080171;28;19916;-42
2023/05/30 11:15:07;;;;;;;;;;;;;;;27.51;48.92;99600.09;5090248;28;19924;-42
2023/05/30 11:17:33;;;;;;;;;;;;;;;27.74;48.22;99594.47;5089444;28;19923;-42
2023/05/30 11:20:21;;;;;;;;;;;;;;;27.88;47.76;99593.22;5089619;28;19912;-43
2023/05/30 11:23:02;;;;;;;;;;;;;;;27.88;47.36;99592.38;5087363;28;20288;-43
2023/05/30 11:25:31;;;;;;;;;;;;;;;28.03;46.58;99585.66;5086743;28;19920;-41
2023/05/30 11:28:00;;;;;;;;;;;;;;;28.22;47.69;99588.03;5088859;28;19927;-42
2023/05/30 11:30:25;;;;;;;;;;;;;;;28.38;45.87;99585.56;5084729;28;19931;-42
2023/05/30 11:32:53;;;;;;;;;;;;;;;28.47;44.28;99587.13;5089729;28;19916;-47
2023/05/30 11:35:18;;;;;;;;;;;;;;;28.53;43.91;99576.84;5089517;28;19919;-47
2023/05/30 11:37:44;;;;;;;;;;;;;;;28.63;43.38;99578.41;5089251;28;19916;-47
2023/05/30 11:40:13;;;;;;;;;;;;;;;28.66;42.96;99572.31;5089216;28;19912;-47
2023/05/30 11:42:38;;;;;;;;;;;;;;;28.80;43.10;99567.38;5088204;28;19916;-42
2023/05/30 11:45:03;;;;;;;;;;;;;;;28.72;42.77;99562.75;5091872;28;19923;-43
2023/05/30 11:47:29;;;;;;;;;;;;;;;28.75;42.42;99561.28;5093687;28;20396;-44
2023/05/30 11:49:57;;;;;;;;;;;;;;;28.70;41.89;99559.56;5094476;28;19958;-43
2023/05/30 11:52:22;;;;;;;;;;;;;;;28.84;41.13;99560.13;5110013;28;19919;-43
2023/05/30 11:54:47;;;;;;;;;;;;;;;28.99;41.07;99558.75;5098768;28;19911;-43
2023/05/30 11:57:16;;;;;;;;;;;;;;;29.04;41.06;99555.81;5104077;28;19916;-41
2023/05/30 11:59:42;;;;;;;;;;;;;;;29.20;40.95;99545.09;5093155;28;19955;-40
2023/05/30 12:02:08;;;;;;;;;;;;;;;29.22;41.39;99540.09;5093577;28;20424;-41
2023/05/30 12:04:34;;;;;;;;;;;;;;;29.29;40.22;99536.84;5093445;28;19912;-43
2023/05/30 12:07:03;;;;;;;;;;;;;;;29.39;40.13;99539.16;5093563;28;19912;-41
2023/05/30 12:09:29;;;;;;;;;;;;;;;29.62;40.46;99536.06;5093476;28;19912;-41
2023/05/30 12:11:56;;;;;;;;;;;;;;;29.86;40.00;99529.13;5093277;28;20340;-44
2023/05/30 12:14:29;;;;;;;;;;;;;;;30.06;39.95;99539.22;5093372;28;19919;-41
2023/05/30 12:16:56;;;;;;;;;;;;;;;30.19;39.14;99531.81;5092747;28;20547;-42
2023/05/30 12:19:25;;;;;;;;;;;;;;;30.32;38.60;99530.75;5092883;28;19912;-42
2023/05/30 12:21:51;;;;;;;;;;;;;;;30.41;38.30;99525.16;5092771;28;19916;-41
2023/05/30 12:24:16;;;;;;;;;;;;;;;30.52;38.06;99518.06;5093084;28;20283;-43
2023/05/30 12:26:48;;;;;;;;;;;;;;;30.54;36.97;99503.97;5093064;28;20307;-43
2023/05/30 12:29:13;;;;;;;;;;;;;;;30.51;36.92;99507.44;5093042;28;19921;-41
2023/05/30 12:31:39;;;;;;;;;;;;;;;30.39;36.50;99505.47;5092849;28;19923;-41
2023/05/30 12:34:04;;;;;;;;;;;;;;;30.48;36.83;99497.94;5093069;28;19915;-41
2023/05/30 12:36:29;;;;;;;;;;;;;;;30.33;36.68;99496.69;5110882;28;19911;-41
2023/05/30 12:38:55;;;;;;;;;;;;;;;29.96;35.62;99482.84;5087771;28;19927;-43
2023/05/30 12:41:30;;;;;;;;;;;;;;;29.97;36.49;99489.16;5091067;28;19942;-41
2023/05/30 12:43:56;;;;;;;;;;;;;;;30.04;37.55;99488.59;5089819;28;19916;-41
2023/05/30 12:46:21;;;;;;;;;;;;;;;30.13;37.30;99481.88;5088884;28;19916;-43